Terminal Aerodrome Forecast
Issued by NWS

Home | Current Version | Previous Version | Text Only | Print | Product List | Glossary On
Versions: 1 2 3 4 5 6 7 8 9 10 11 12
856
FTUS43 KMQT 291720
TAFCMX
TAF
KCMX 291720Z 2918/3018 33005KT P6SM SKC
     FM292200 06005KT P6SM SKC
     FM301200 03007KT P6SM SCT050
     FM301600 05012G17KT P6SM FEW035=

USA.gov is the U.S. government's official web portal to all federal, state and local government web resources and services.